createdAt,value
2022-08-26T00:00:04.820Z,0.00
2022-08-26T00:01:04.801Z,0.00
2022-08-26T00:02:04.866Z,0.00
2022-08-26T00:03:04.785Z,0.00
2022-08-26T00:04:04.866Z,0.00
2022-08-26T00:05:04.966Z,0.00
2022-08-26T00:06:04.754Z,0.00
2022-08-26T00:07:05.329Z,0.00
2022-08-26T00:08:10.748Z,0.00
2022-08-26T00:09:04.720Z,0.00
2022-08-26T00:10:04.740Z,0.00
2022-08-26T00:11:04.697Z,0.00
2022-08-26T00:12:04.686Z,0.00
2022-08-26T00:13:04.681Z,0.00
2022-08-26T00:14:04.669Z,0.00
2022-08-26T00:15:04.656Z,0.00
2022-08-26T00:16:04.715Z,0.00
2022-08-26T00:17:04.704Z,0.00
2022-08-26T00:18:04.623Z,0.00
2022-08-26T00:19:05.651Z,0.00
2022-08-26T00:20:04.605Z,0.00
2022-08-26T00:21:06.187Z,0.00
2022-08-26T00:22:04.581Z,0.00
2022-08-26T00:23:04.613Z,0.00
2022-08-26T00:24:04.560Z,0.00
2022-08-26T00:25:04.557Z,0.00
2022-08-26T00:26:04.537Z,0.00
2022-08-26T00:27:04.727Z,0.00
2022-08-26T00:28:10.939Z,0.00
2022-08-26T00:29:05.067Z,0.00
2022-08-26T00:30:04.495Z,0.00
2022-08-26T00:31:04.500Z,0.00
2022-08-26T00:32:04.576Z,0.00
2022-08-26T00:33:04.473Z,0.00
2022-08-26T00:34:04.453Z,0.00
2022-08-26T00:35:04.442Z,0.00
2022-08-26T00:36:04.434Z,0.00
2022-08-26T00:37:04.432Z,0.00
2022-08-26T00:38:04.410Z,0.00
2022-08-26T00:39:04.401Z,0.00
2022-08-26T00:40:05.023Z,0.00
2022-08-26T00:41:04.384Z,0.00
2022-08-26T00:42:04.371Z,0.00
2022-08-26T00:43:05.220Z,0.00
2022-08-26T00:44:04.354Z,0.00
2022-08-26T00:45:04.340Z,0.00
2022-08-26T00:46:06.403Z,0.00
2022-08-26T00:47:04.322Z,0.00
2022-08-26T00:48:04.309Z,0.00
2022-08-26T00:49:04.507Z,0.00
2022-08-26T00:50:05.517Z,0.00
2022-08-26T00:51:04.279Z,0.00
2022-08-26T00:52:04.266Z,0.00
2022-08-26T00:53:10.269Z,0.00
2022-08-26T00:54:04.249Z,0.00
2022-08-26T00:55:04.234Z,0.00
2022-08-26T00:56:04.230Z,0.00
2022-08-26T00:57:16.524Z,0.00
2022-08-26T00:58:05.239Z,0.00
2022-08-26T00:59:04.291Z,0.00
2022-08-26T01:00:04.387Z,0.00
2022-08-26T01:01:04.246Z,0.00
2022-08-26T01:02:04.182Z,0.00
2022-08-26T01:03:05.290Z,0.00
2022-08-26T01:04:04.137Z,0.00
2022-08-26T01:05:04.183Z,0.00
2022-08-26T01:06:04.117Z,0.00
2022-08-26T01:07:04.111Z,0.00
2022-08-26T01:08:04.097Z,0.00
2022-08-26T01:09:04.084Z,0.00
2022-08-26T01:10:04.087Z,0.00
2022-08-26T01:11:04.064Z,0.00
2022-08-26T01:12:04.058Z,0.00
2022-08-26T01:13:04.063Z,0.00
2022-08-26T01:14:04.035Z,0.00
2022-08-26T01:15:04.020Z,0.00
2022-08-26T01:16:04.070Z,0.00
2022-08-26T01:17:05.051Z,0.00
2022-08-26T01:18:03.991Z,0.00
2022-08-26T01:19:03.984Z,0.00
2022-08-26T01:20:09.983Z,0.00
2022-08-26T01:21:03.961Z,0.00
2022-08-26T01:22:03.948Z,0.00
2022-08-26T01:23:09.945Z,0.00
2022-08-26T01:24:03.929Z,0.00
2022-08-26T01:25:03.938Z,0.00
2022-08-26T01:26:03.917Z,0.00
2022-08-26T01:27:03.895Z,0.00
2022-08-26T01:28:04.093Z,0.00
2022-08-26T01:29:03.878Z,0.00
2022-08-26T01:30:03.865Z,0.00
2022-08-26T01:31:03.856Z,0.00
2022-08-26T01:32:05.130Z,0.00
2022-08-26T01:33:03.887Z,0.00
2022-08-26T01:34:03.820Z,0.00
2022-08-26T01:35:03.809Z,0.00
2022-08-26T01:36:04.002Z,0.00
2022-08-26T01:37:03.796Z,0.00
2022-08-26T01:38:03.777Z,0.00
2022-08-26T01:39:03.772Z,0.00
2022-08-26T01:40:03.809Z,0.00
2022-08-26T01:41:03.745Z,0.00
2022-08-26T01:42:10.995Z,0.00
2022-08-26T01:43:03.958Z,0.00
2022-08-26T01:44:03.718Z,0.00
2022-08-26T01:45:03.708Z,0.00
2022-08-26T01:46:09.962Z,0.00
2022-08-26T01:47:05.038Z,0.00
2022-08-26T01:48:03.672Z,0.00
2022-08-26T01:49:03.661Z,0.00
2022-08-26T01:50:03.654Z,0.00
2022-08-26T01:51:03.658Z,0.00
2022-08-26T01:52:03.712Z,0.00
2022-08-26T01:53:03.618Z,0.00
2022-08-26T01:54:03.612Z,0.00
2022-08-26T01:55:03.599Z,0.00
2022-08-26T01:56:03.789Z,0.00
2022-08-26T01:57:03.577Z,0.00
2022-08-26T01:58:03.569Z,0.00
2022-08-26T01:59:03.558Z,0.00
2022-08-26T02:00:09.556Z,0.00
2022-08-26T02:01:03.611Z,0.00
2022-08-26T02:02:03.532Z,0.00
2022-08-26T02:03:03.609Z,0.00
2022-08-26T02:04:03.504Z,0.00
2022-08-26T02:05:03.513Z,0.00
2022-08-26T02:06:03.481Z,0.00
2022-08-26T02:07:03.474Z,0.00
2022-08-26T02:08:03.463Z,0.00
2022-08-26T02:09:03.454Z,0.00
2022-08-26T02:10:03.443Z,0.00
2022-08-26T02:11:03.473Z,0.00
2022-08-26T02:12:03.420Z,0.00
2022-08-26T02:13:03.412Z,0.00
2022-08-26T02:14:03.435Z,0.00
2022-08-26T02:15:05.656Z,0.00
2022-08-26T02:16:03.674Z,0.00
2022-08-26T02:17:03.374Z,0.00
2022-08-26T02:18:03.359Z,0.00
2022-08-26T02:19:03.343Z,0.00
2022-08-26T02:20:03.340Z,0.00
2022-08-26T02:21:03.328Z,0.00
2022-08-26T02:22:03.315Z,0.00
2022-08-26T02:23:03.322Z,0.00
2022-08-26T02:24:03.295Z,0.00
2022-08-26T02:25:03.292Z,0.00
2022-08-26T02:26:03.276Z,0.00
2022-08-26T02:27:03.272Z,0.00
2022-08-26T02:28:03.255Z,0.00
2022-08-26T02:29:03.251Z,0.00
2022-08-26T02:30:03.233Z,0.00
2022-08-26T02:31:03.297Z,0.00
2022-08-26T02:32:03.211Z,0.00
2022-08-26T02:33:03.201Z,0.00
2022-08-26T02:34:03.188Z,0.00
2022-08-26T02:35:03.181Z,0.00
2022-08-26T02:36:03.169Z,0.00
2022-08-26T02:37:03.161Z,0.00
2022-08-26T02:38:03.153Z,0.00
2022-08-26T02:39:04.171Z,0.00
2022-08-26T02:40:03.240Z,0.00
2022-08-26T02:41:03.116Z,0.00
2022-08-26T02:42:03.109Z,0.00
2022-08-26T02:43:03.138Z,0.00
2022-08-26T02:44:09.093Z,0.00
2022-08-26T02:45:03.077Z,0.00
2022-08-26T02:46:03.064Z,0.00
2022-08-26T02:47:03.132Z,0.00
2022-08-26T02:48:09.049Z,0.00
2022-08-26T02:49:03.033Z,0.00
2022-08-26T02:50:03.021Z,0.00
2022-08-26T02:51:03.214Z,0.00
2022-08-26T02:52:02.999Z,0.00
2022-08-26T02:53:02.989Z,0.00
2022-08-26T02:54:02.979Z,0.00
2022-08-26T02:55:02.984Z,0.00
2022-08-26T02:56:08.963Z,0.00
2022-08-26T02:57:02.952Z,0.00
2022-08-26T02:58:02.957Z,0.00
2022-08-26T02:59:02.924Z,0.00
2022-08-26T03:00:02.923Z,0.00
2022-08-26T03:01:02.917Z,0.00
2022-08-26T03:02:02.996Z,0.00
2022-08-26T03:03:02.887Z,0.00
2022-08-26T03:04:02.882Z,0.00
2022-08-26T03:05:02.872Z,0.00
2022-08-26T03:06:02.862Z,0.00
2022-08-26T03:07:02.850Z,0.00
2022-08-26T03:08:02.832Z,0.00
2022-08-26T03:09:02.829Z,0.00
2022-08-26T03:10:08.235Z,0.00
2022-08-26T03:11:02.805Z,0.00
2022-08-26T03:12:02.790Z,0.00
2022-08-26T03:13:05.136Z,0.00
2022-08-26T03:14:03.634Z,0.00
2022-08-26T03:15:02.759Z,0.00
2022-08-26T03:16:03.815Z,0.00
2022-08-26T03:17:02.744Z,0.00
2022-08-26T03:18:02.728Z,0.00
2022-08-26T03:19:02.720Z,0.00
2022-08-26T03:20:02.704Z,0.00
2022-08-26T03:21:02.697Z,0.00
2022-08-26T03:22:02.683Z,0.00
2022-08-26T03:23:02.675Z,0.00
2022-08-26T03:24:02.875Z,0.00
2022-08-26T03:25:02.655Z,0.00
2022-08-26T03:26:02.657Z,0.00
2022-08-26T03:27:05.856Z,0.00
2022-08-26T03:28:02.624Z,0.00
2022-08-26T03:29:02.617Z,0.00
2022-08-26T03:30:02.605Z,0.00
2022-08-26T03:31:02.623Z,0.00
2022-08-26T03:32:02.577Z,0.00
2022-08-26T03:33:02.844Z,0.00
2022-08-26T03:34:02.562Z,0.00
2022-08-26T03:35:02.558Z,0.00
2022-08-26T03:36:02.537Z,0.00
2022-08-26T03:37:02.584Z,0.00
2022-08-26T03:38:02.520Z,0.00
2022-08-26T03:39:02.512Z,0.00
2022-08-26T03:40:02.526Z,0.00
2022-08-26T03:41:02.487Z,0.00
2022-08-26T03:42:02.477Z,0.00
2022-08-26T03:43:02.469Z,0.00
2022-08-26T03:44:02.459Z,0.00
2022-08-26T03:45:02.443Z,0.00
2022-08-26T03:46:02.487Z,0.00
2022-08-26T03:47:02.425Z,0.00
2022-08-26T03:48:02.412Z,0.00
2022-08-26T03:49:02.398Z,0.00
2022-08-26T03:50:02.388Z,0.00
2022-08-26T03:51:08.383Z,0.00
2022-08-26T03:52:02.368Z,0.00
2022-08-26T03:53:02.455Z,0.00
2022-08-26T03:54:02.345Z,0.00
2022-08-26T03:55:02.611Z,0.00
2022-08-26T03:56:02.326Z,0.00
2022-08-26T03:57:02.517Z,0.00
2022-08-26T03:58:08.312Z,0.00
2022-08-26T03:59:02.300Z,0.00
2022-08-26T04:00:02.280Z,0.00
2022-08-26T04:01:02.272Z,0.00
2022-08-26T04:02:02.350Z,0.00
2022-08-26T04:03:02.389Z,0.00
2022-08-26T04:04:02.237Z,0.00
2022-08-26T04:05:02.232Z,0.00
2022-08-26T04:06:02.220Z,0.00
2022-08-26T04:07:02.211Z,0.00
2022-08-26T04:08:02.206Z,0.00
2022-08-26T04:09:02.189Z,0.00
2022-08-26T04:10:02.180Z,0.00
2022-08-26T04:11:02.112Z,1.00
2022-08-26T04:12:02.159Z,0.00
2022-08-26T04:13:02.155Z,1.00
2022-08-26T04:14:02.081Z,1.00
2022-08-26T04:15:02.072Z,1.00
2022-08-26T04:16:02.171Z,0.00
2022-08-26T04:17:02.061Z,2.00
2022-08-26T04:18:08.056Z,2.00
2022-08-26T04:19:02.030Z,1.00
2022-08-26T04:20:02.022Z,1.00
2022-08-26T04:21:02.009Z,2.00
2022-08-26T04:22:01.996Z,1.00
2022-08-26T04:23:02.018Z,1.00
2022-08-26T04:24:03.616Z,4.00
2022-08-26T04:25:01.963Z,5.00
2022-08-26T04:26:01.956Z,5.00
2022-08-26T04:27:01.949Z,4.00
2022-08-26T04:28:01.933Z,8.00
2022-08-26T04:29:02.125Z,7.00
2022-08-26T04:30:01.929Z,7.00
2022-08-26T04:31:01.916Z,8.00
2022-08-26T04:32:01.890Z,11.00
2022-08-26T04:33:02.000Z,14.00
2022-08-26T04:34:02.223Z,14.00
2022-08-26T04:35:07.873Z,14.00
2022-08-26T04:36:01.904Z,19.00
2022-08-26T04:37:01.840Z,23.00
2022-08-26T04:38:01.831Z,28.00
2022-08-26T04:39:01.821Z,28.00
2022-08-26T04:40:01.974Z,34.00
2022-08-26T04:41:01.795Z,36.00
2022-08-26T04:42:01.883Z,40.00
2022-08-26T04:43:01.804Z,40.00
2022-08-26T04:44:01.774Z,46.00
2022-08-26T04:45:01.960Z,50.00
2022-08-26T04:46:01.815Z,51.00
2022-08-26T04:47:01.742Z,60.00
2022-08-26T04:48:01.724Z,68.00
2022-08-26T04:49:01.916Z,71.00
2022-08-26T04:50:01.938Z,74.00
2022-08-26T04:51:01.824Z,82.00
2022-08-26T04:52:07.890Z,91.00
2022-08-26T04:53:01.696Z,88.00
2022-08-26T04:54:01.658Z,99.00
2022-08-26T04:55:01.649Z,107.00
2022-08-26T04:56:01.639Z,110.00
2022-08-26T04:57:07.643Z,114.00
2022-08-26T04:58:01.620Z,117.00
2022-08-26T04:59:01.609Z,128.00
2022-08-26T05:00:01.607Z,134.00
2022-08-26T05:01:01.590Z,134.00
2022-08-26T05:02:07.627Z,138.00
2022-08-26T05:03:01.674Z,143.00
2022-08-26T05:04:01.660Z,147.00
2022-08-26T05:05:01.548Z,152.00
2022-08-26T05:06:01.542Z,157.00
2022-08-26T05:07:07.546Z,173.00
2022-08-26T05:08:01.537Z,188.00
2022-08-26T05:09:01.514Z,210.00
2022-08-26T05:10:01.503Z,239.00
2022-08-26T05:11:01.493Z,270.00
2022-08-26T05:12:01.476Z,304.00
2022-08-26T05:13:01.540Z,330.00
2022-08-26T05:14:02.256Z,344.00
2022-08-26T05:15:01.442Z,370.00
2022-08-26T05:16:01.598Z,392.00
2022-08-26T05:17:01.435Z,420.00
2022-08-26T05:18:07.438Z,452.00
2022-08-26T05:19:01.459Z,472.00
2022-08-26T05:20:01.403Z,489.00
2022-08-26T05:21:01.383Z,517.00
2022-08-26T05:22:01.380Z,550.00
2022-08-26T05:23:01.423Z,574.00
2022-08-26T05:24:01.348Z,590.00
2022-08-26T05:25:01.342Z,606.00
2022-08-26T05:26:01.330Z,626.00
2022-08-26T05:27:01.317Z,663.00
2022-08-26T05:28:01.319Z,684.00
2022-08-26T05:29:01.296Z,702.00
2022-08-26T05:30:01.281Z,756.00
2022-08-26T05:31:07.388Z,788.00
2022-08-26T05:32:01.266Z,815.00
2022-08-26T05:33:01.252Z,840.00
2022-08-26T05:34:03.615Z,875.00
2022-08-26T05:35:01.232Z,914.00
2022-08-26T05:36:01.221Z,936.00
2022-08-26T05:37:01.216Z,963.00
2022-08-26T05:38:01.267Z,995.00
2022-08-26T05:39:01.188Z,1031.00
2022-08-26T05:40:01.263Z,1042.00
2022-08-26T05:41:01.168Z,1077.00
2022-08-26T05:42:01.158Z,1141.00
2022-08-26T05:43:01.150Z,1181.00
2022-08-26T05:44:01.134Z,1274.00
2022-08-26T05:45:01.126Z,1353.00
2022-08-26T05:46:01.315Z,1402.00
2022-08-26T05:47:01.105Z,1521.00
2022-08-26T05:48:01.104Z,1539.00
2022-08-26T05:49:01.085Z,1543.00
2022-08-26T05:50:01.073Z,1528.00
2022-08-26T05:51:01.064Z,1619.00
2022-08-26T05:52:01.052Z,1617.00
2022-08-26T05:53:07.481Z,1614.00
2022-08-26T05:54:01.029Z,1623.00
2022-08-26T05:55:01.025Z,1635.00
2022-08-26T05:56:01.008Z,1652.00
2022-08-26T05:57:01.202Z,1672.00
2022-08-26T05:58:00.991Z,1660.00
2022-08-26T05:59:00.982Z,1638.00
2022-08-26T06:00:00.968Z,1628.00
2022-08-26T06:01:00.960Z,1618.00
2022-08-26T06:02:01.039Z,1627.00
2022-08-26T06:03:01.117Z,1674.00
2022-08-26T06:04:01.688Z,1711.00
2022-08-26T06:05:00.920Z,1714.00
2022-08-26T06:06:00.903Z,1737.00
2022-08-26T06:07:00.894Z,1484.00
2022-08-26T06:08:00.893Z,1802.00
2022-08-26T06:09:00.881Z,1890.00
2022-08-26T06:10:28.285Z,1632.00
2022-08-26T06:11:01.896Z,1783.00
2022-08-26T06:12:00.843Z,1323.00
2022-08-26T06:13:04.548Z,2066.00
2022-08-26T06:14:03.990Z,1848.00
2022-08-26T06:15:00.812Z,1782.00
2022-08-26T06:16:06.850Z,1792.00
2022-08-26T06:17:00.794Z,1786.00
2022-08-26T06:18:00.985Z,1715.00
2022-08-26T06:19:00.768Z,1875.00
2022-08-26T06:20:00.763Z,1796.00
2022-08-26T06:21:00.761Z,1825.00
2022-08-26T06:22:00.744Z,1820.00
2022-08-26T06:23:00.727Z,1881.00
2022-08-26T06:24:06.730Z,1900.00
2022-08-26T06:25:00.706Z,1956.00
2022-08-26T06:26:00.702Z,1991.00
2022-08-26T06:27:00.720Z,2002.00
2022-08-26T06:28:00.684Z,2008.00
2022-08-26T06:29:00.676Z,1998.00
2022-08-26T06:30:00.663Z,1980.00
2022-08-26T06:31:00.690Z,1950.00
2022-08-26T06:32:00.637Z,1916.00
2022-08-26T06:33:00.686Z,1868.00
2022-08-26T06:34:00.630Z,1815.00
2022-08-26T06:35:00.608Z,1760.00
2022-08-26T06:36:00.598Z,1734.00
2022-08-26T06:37:01.408Z,1685.00
2022-08-26T06:38:00.570Z,1657.00
2022-08-26T06:39:00.562Z,1636.00
2022-08-26T06:40:00.599Z,1501.00
2022-08-26T06:41:00.744Z,1605.00
2022-08-26T06:42:00.560Z,1659.00
2022-08-26T06:43:00.522Z,1561.00
2022-08-26T06:44:00.510Z,1522.00
2022-08-26T06:45:00.501Z,1490.00
2022-08-26T06:46:00.534Z,1459.00
2022-08-26T06:47:00.479Z,1413.00
2022-08-26T06:48:00.470Z,1349.00
2022-08-26T06:49:00.457Z,1300.00
2022-08-26T06:50:00.446Z,1253.00
2022-08-26T06:51:00.439Z,1225.00
2022-08-26T06:52:00.432Z,1208.00
2022-08-26T06:53:00.628Z,1206.00
2022-08-26T06:54:06.508Z,1219.00
2022-08-26T06:55:00.393Z,1253.00
2022-08-26T06:56:00.387Z,1287.00
2022-08-26T06:57:00.377Z,1288.00
2022-08-26T06:58:06.375Z,1304.00
2022-08-26T06:59:00.354Z,1328.00
2022-08-26T07:00:00.349Z,1355.00
2022-08-26T07:01:03.693Z,1375.00
2022-08-26T07:02:01.449Z,1407.00
2022-08-26T07:03:00.368Z,1417.00
2022-08-26T07:04:00.319Z,1451.00
2022-08-26T07:05:00.298Z,1472.00
2022-08-26T07:06:00.284Z,1518.00
2022-08-26T07:07:00.273Z,1573.00
2022-08-26T07:08:00.262Z,1624.00
2022-08-26T07:09:00.262Z,1675.00
2022-08-26T07:10:00.240Z,1722.00
2022-08-26T07:11:00.230Z,1781.00
2022-08-26T07:12:00.220Z,1834.00
2022-08-26T07:13:00.211Z,1891.00
2022-08-26T07:14:06.236Z,1941.00
2022-08-26T07:15:00.190Z,1980.00
2022-08-26T07:16:03.204Z,2037.00
2022-08-26T07:17:00.169Z,2089.00
2022-08-26T07:18:00.163Z,2128.00
2022-08-26T07:19:01.135Z,2170.00
2022-08-26T07:20:00.149Z,2227.00
2022-08-26T07:21:06.136Z,2275.00
2022-08-26T07:22:00.139Z,2307.00
2022-08-26T07:23:00.107Z,2353.00
2022-08-26T07:24:01.546Z,2401.00
2022-08-26T07:25:00.116Z,2419.00
2022-08-26T07:26:00.089Z,2455.00
2022-08-26T07:27:00.084Z,2496.00
2022-08-26T07:28:00.069Z,2523.00
2022-08-26T07:29:00.056Z,2528.00
2022-08-26T07:30:00.040Z,2558.00
2022-08-26T07:31:00.067Z,2612.00
2022-08-26T07:32:00.022Z,2661.00
2022-08-26T07:33:00.006Z,2715.00
2022-08-26T07:33:59.997Z,2784.00
2022-08-26T07:34:59.991Z,2801.00
2022-08-26T07:35:59.975Z,2833.00
2022-08-26T07:36:59.962Z,2862.00
2022-08-26T07:37:59.950Z,2883.00
2022-08-26T07:38:59.952Z,2853.00
2022-08-26T07:39:59.986Z,2848.00
2022-08-26T07:41:00.138Z,2725.00
2022-08-26T07:41:59.910Z,2808.00
2022-08-26T07:43:05.911Z,2861.00
2022-08-26T07:43:59.892Z,2977.00
2022-08-26T07:44:59.877Z,2781.00
2022-08-26T07:45:59.879Z,2573.00
2022-08-26T07:46:59.859Z,2571.00
2022-08-26T07:47:59.854Z,2504.00
2022-08-26T07:48:59.891Z,2488.00
2022-08-26T07:49:59.832Z,2411.00
2022-08-26T07:50:59.816Z,2257.00
2022-08-26T07:51:59.811Z,1982.00
2022-08-26T07:52:59.799Z,2170.00
2022-08-26T07:53:59.792Z,1988.00
2022-08-26T07:54:59.786Z,1898.00
2022-08-26T07:55:59.989Z,1929.00
2022-08-26T07:57:08.390Z,1932.00
2022-08-26T07:57:59.752Z,1913.00
2022-08-26T07:58:59.734Z,1884.00
2022-08-26T07:59:59.727Z,1705.00
2022-08-26T08:00:59.737Z,1657.00
2022-08-26T08:02:00.005Z,1639.00
2022-08-26T08:02:59.694Z,1654.00
2022-08-26T08:03:59.689Z,1621.00
2022-08-26T08:04:59.752Z,1627.00
2022-08-26T08:05:59.661Z,1641.00
2022-08-26T08:06:59.854Z,1599.00
2022-08-26T08:08:26.522Z,1619.00
2022-08-26T08:09:01.068Z,1596.00
2022-08-26T08:09:59.621Z,1644.00
2022-08-26T08:10:59.739Z,1671.00
2022-08-26T08:11:59.600Z,1604.00
2022-08-26T08:12:59.590Z,1621.00
2022-08-26T08:13:59.589Z,1617.00
2022-08-26T08:14:59.583Z,1655.00
2022-08-26T08:15:59.565Z,1657.00
2022-08-26T08:16:59.596Z,1676.00
2022-08-26T08:18:15.350Z,1644.00
2022-08-26T08:19:01.537Z,1661.00
2022-08-26T08:19:59.519Z,1681.00
2022-08-26T08:21:20.943Z,1701.00
2022-08-26T08:22:17.096Z,1739.00
2022-08-26T08:23:00.523Z,1767.00
2022-08-26T08:23:59.734Z,1776.00
2022-08-26T08:24:59.463Z,1788.00
2022-08-26T08:26:05.481Z,1833.00
2022-08-26T08:27:05.448Z,1843.00
2022-08-26T08:28:05.485Z,1910.00
2022-08-26T08:28:59.423Z,1922.00
2022-08-26T08:29:59.423Z,1923.00
2022-08-26T08:30:59.512Z,1938.00
2022-08-26T08:31:59.947Z,1945.00
2022-08-26T08:32:59.383Z,1965.00
2022-08-26T08:33:59.369Z,2008.00
2022-08-26T08:34:59.363Z,2035.00
2022-08-26T08:35:59.351Z,2055.00
2022-08-26T08:37:08.615Z,2101.00
2022-08-26T08:37:59.332Z,2147.00
2022-08-26T08:38:59.342Z,2206.00
2022-08-26T08:39:59.398Z,2260.00
2022-08-26T08:40:59.299Z,2327.00
2022-08-26T08:41:59.289Z,2425.00
2022-08-26T08:42:59.292Z,2529.00
2022-08-26T08:43:59.266Z,2627.00
2022-08-26T08:44:59.256Z,2739.00
2022-08-26T08:45:59.842Z,2840.00
2022-08-26T08:46:59.243Z,2950.00
2022-08-26T08:47:59.236Z,3023.00
2022-08-26T08:48:59.217Z,3115.00
2022-08-26T08:49:59.207Z,3125.00
2022-08-26T08:50:59.398Z,3081.00
2022-08-26T08:51:59.193Z,2946.00
2022-08-26T08:52:59.176Z,2820.00
2022-08-26T08:53:59.165Z,2695.00
2022-08-26T08:55:05.167Z,2598.00
2022-08-26T08:56:07.156Z,2575.00
2022-08-26T08:56:59.650Z,2569.00
2022-08-26T08:58:02.158Z,2479.00
2022-08-26T08:58:59.121Z,2377.00
2022-08-26T08:59:59.107Z,2253.00
2022-08-26T09:00:59.219Z,2147.00
2022-08-26T09:01:59.130Z,2060.00
2022-08-26T09:02:59.069Z,1926.00
2022-08-26T09:03:59.064Z,2007.00
2022-08-26T09:04:59.047Z,1858.00
2022-08-26T09:05:59.053Z,1765.00
2022-08-26T09:06:59.101Z,1675.00
2022-08-26T09:07:59.024Z,1587.00
2022-08-26T09:08:59.006Z,1522.00
2022-08-26T09:10:05.004Z,1460.00
2022-08-26T09:10:59.047Z,1426.00
2022-08-26T09:11:58.978Z,1381.00
2022-08-26T09:12:58.969Z,1332.00
2022-08-26T09:14:00.461Z,1287.00
2022-08-26T09:14:58.943Z,1253.00
2022-08-26T09:15:58.939Z,1215.00
2022-08-26T09:16:59.010Z,1183.00
2022-08-26T09:17:58.915Z,1165.00
2022-08-26T09:18:58.909Z,1153.00
2022-08-26T09:19:58.895Z,1136.00
2022-08-26T09:20:58.945Z,1121.00
2022-08-26T09:22:09.437Z,1109.00
2022-08-26T09:22:58.863Z,1103.00
2022-08-26T09:23:58.862Z,1097.00
2022-08-26T09:24:58.852Z,1095.00
2022-08-26T09:25:58.889Z,1095.00
2022-08-26T09:26:58.883Z,1090.00
2022-08-26T09:27:58.812Z,1087.00
2022-08-26T09:28:58.805Z,1095.00
2022-08-26T09:29:58.791Z,1107.00
2022-08-26T09:30:58.858Z,1121.00
2022-08-26T09:31:58.771Z,1133.00
2022-08-26T09:32:58.758Z,1141.00
2022-08-26T09:33:58.753Z,1142.00
2022-08-26T09:34:58.746Z,1153.00
2022-08-26T09:35:58.727Z,1153.00
2022-08-26T09:36:58.719Z,1164.00
2022-08-26T09:37:58.723Z,1172.00
2022-08-26T09:38:58.697Z,1191.00
2022-08-26T09:39:58.704Z,1206.00
2022-08-26T09:40:59.405Z,1228.00
2022-08-26T09:41:58.667Z,1247.00
2022-08-26T09:42:58.671Z,1278.00
2022-08-26T09:43:58.647Z,1303.00
2022-08-26T09:45:33.406Z,1445.00
2022-08-26T09:46:33.488Z,1397.00
2022-08-26T09:47:33.305Z,1449.00
2022-08-26T09:48:35.522Z,1498.00
2022-08-26T09:49:36.092Z,1539.00
2022-08-26T09:50:33.280Z,1586.00
2022-08-26T09:51:33.264Z,1620.00
2022-08-26T09:52:33.253Z,1668.00
2022-08-26T09:53:33.250Z,1709.00
2022-08-26T09:54:33.482Z,1764.00
2022-08-26T09:55:33.219Z,1835.00
2022-08-26T09:56:33.210Z,1899.00
2022-08-26T09:57:33.204Z,1974.00
2022-08-26T09:58:33.190Z,2049.00
2022-08-26T09:59:33.176Z,2136.00
2022-08-26T10:00:33.174Z,2228.00
2022-08-26T10:01:33.222Z,2308.00
2022-08-26T10:02:33.148Z,2389.00
2022-08-26T10:03:33.139Z,2450.00
2022-08-26T10:04:33.165Z,2485.00
2022-08-26T10:05:33.118Z,2522.00
2022-08-26T10:06:39.120Z,2561.00
2022-08-26T10:07:33.101Z,2604.00
2022-08-26T10:08:33.085Z,2650.00
2022-08-26T10:09:33.075Z,2694.00
2022-08-26T10:10:33.065Z,2753.00
2022-08-26T10:11:33.055Z,2834.00
2022-08-26T10:12:33.044Z,2922.00
2022-08-26T10:13:33.032Z,2987.00
2022-08-26T10:14:33.033Z,3088.00
2022-08-26T10:15:39.024Z,3191.00
2022-08-26T10:16:33.034Z,3291.00
2022-08-26T10:17:32.996Z,3380.00
2022-08-26T10:18:34.201Z,3482.00
2022-08-26T10:19:55.957Z,3622.00
2022-08-26T10:20:34.000Z,3742.00
2022-08-26T10:21:32.953Z,3894.00
2022-08-26T10:22:32.940Z,3995.00
2022-08-26T10:23:33.166Z,4168.00
2022-08-26T10:24:32.926Z,4299.00
2022-08-26T10:25:32.911Z,4504.00
2022-08-26T10:26:32.904Z,4642.00
2022-08-26T10:27:32.890Z,4786.00
2022-08-26T10:28:33.089Z,4951.00
2022-08-26T10:29:33.091Z,5081.00
2022-08-26T10:30:32.866Z,5212.00
2022-08-26T10:32:07.563Z,5328.00
2022-08-26T10:33:08.768Z,5366.00
2022-08-26T10:34:07.516Z,5349.00
2022-08-26T10:35:07.529Z,5257.00
2022-08-26T10:36:15.319Z,5173.00
2022-08-26T10:37:14.896Z,5061.00
2022-08-26T10:38:08.608Z,4912.00
2022-08-26T10:39:07.462Z,4780.00
2022-08-26T10:40:07.530Z,4725.00
2022-08-26T10:41:10.466Z,4622.00
2022-08-26T10:42:07.434Z,4547.00
2022-08-26T10:43:11.230Z,4487.00
2022-08-26T10:44:07.404Z,4410.00
2022-08-26T10:45:07.623Z,4347.00
2022-08-26T10:46:07.474Z,4276.00
2022-08-26T10:47:07.385Z,4184.00
2022-08-26T10:48:07.649Z,4143.00
2022-08-26T10:49:13.360Z,4101.00
2022-08-26T10:50:07.349Z,4112.00
2022-08-26T10:51:08.695Z,4149.00
2022-08-26T10:52:15.188Z,4204.00
2022-08-26T10:53:09.312Z,4203.00
2022-08-26T10:54:07.308Z,4236.00
2022-08-26T10:55:07.296Z,4242.00
2022-08-26T10:56:18.576Z,4250.00
2022-08-26T10:57:09.749Z,4254.00
2022-08-26T10:58:09.177Z,4250.00
2022-08-26T10:59:13.330Z,4188.00
2022-08-26T11:00:07.440Z,4137.00
2022-08-26T11:01:10.491Z,4102.00
2022-08-26T11:02:07.229Z,4100.00
2022-08-26T11:03:21.717Z,4109.00
2022-08-26T11:04:08.298Z,4140.00
2022-08-26T11:05:07.186Z,4204.00
2022-08-26T11:06:07.178Z,4284.00
2022-08-26T11:07:07.178Z,4371.00
2022-08-26T11:08:07.409Z,4411.00
2022-08-26T11:09:07.151Z,4462.00
2022-08-26T11:10:07.140Z,4440.00
2022-08-26T11:11:07.125Z,4443.00
2022-08-26T11:12:10.282Z,4504.00
2022-08-26T11:13:07.336Z,4519.00
2022-08-26T11:14:07.100Z,4486.00
2022-08-26T11:15:07.084Z,4497.00
2022-08-26T11:16:07.114Z,4557.00
2022-08-26T11:17:07.069Z,4757.00
2022-08-26T11:18:07.061Z,4756.00
2022-08-26T11:19:07.044Z,4670.00
2022-08-26T11:20:13.230Z,4683.00
2022-08-26T11:21:10.216Z,4789.00
2022-08-26T11:22:07.024Z,4908.00
2022-08-26T11:23:07.004Z,5041.00
2022-08-26T11:24:06.998Z,5100.00
2022-08-26T11:25:06.987Z,4937.00
2022-08-26T11:26:06.974Z,4740.00
2022-08-26T11:27:06.969Z,4531.00
2022-08-26T11:28:07.072Z,4415.00
2022-08-26T11:29:13.328Z,4393.00
2022-08-26T11:30:10.990Z,4384.00
2022-08-26T11:31:07.006Z,4494.00
2022-08-26T11:32:06.914Z,4622.00
2022-08-26T11:33:06.967Z,4569.00
2022-08-26T11:34:07.109Z,4355.00
2022-08-26T11:35:06.883Z,3959.00
2022-08-26T11:36:07.458Z,3748.00
2022-08-26T11:37:06.953Z,3612.00
2022-08-26T11:38:06.951Z,3566.00
2022-08-26T11:39:06.847Z,3560.00
2022-08-26T11:40:07.070Z,3561.00
2022-08-26T11:41:06.822Z,3573.00
2022-08-26T11:42:06.812Z,3637.00
2022-08-26T11:43:07.009Z,3740.00
2022-08-26T11:44:06.804Z,3866.00
2022-08-26T11:45:06.780Z,4034.00
2022-08-26T11:46:06.826Z,4125.00
2022-08-26T11:47:06.764Z,4197.00
2022-08-26T11:48:06.928Z,4238.00
2022-08-26T11:49:06.749Z,4258.00
2022-08-26T11:50:06.735Z,4239.00
2022-08-26T11:51:06.731Z,4184.00
2022-08-26T11:52:06.714Z,4139.00
2022-08-26T11:53:07.743Z,4080.00
2022-08-26T11:54:06.689Z,4026.00
2022-08-26T11:55:06.682Z,3964.00
2022-08-26T11:56:12.678Z,3897.00
2022-08-26T11:57:09.481Z,3806.00
2022-08-26T11:58:07.617Z,3714.00
2022-08-26T11:59:06.641Z,3657.00
2022-08-26T12:00:08.397Z,3625.00
2022-08-26T12:01:09.580Z,3596.00
2022-08-26T12:02:07.016Z,3574.00
2022-08-26T12:03:06.843Z,3544.00
2022-08-26T12:04:06.779Z,3558.00
2022-08-26T12:05:12.800Z,3520.00
2022-08-26T12:06:06.568Z,3521.00
2022-08-26T12:07:06.561Z,3487.00
2022-08-26T12:08:06.583Z,3429.00
2022-08-26T12:09:06.544Z,3352.00
2022-08-26T12:10:06.729Z,3256.00
2022-08-26T12:11:06.532Z,3200.00
2022-08-26T12:12:06.711Z,3154.00
2022-08-26T12:13:06.499Z,3107.00
2022-08-26T12:14:07.242Z,3080.00
2022-08-26T12:15:06.481Z,3096.00
2022-08-26T12:16:06.548Z,3097.00
2022-08-26T12:17:06.662Z,3110.00
2022-08-26T12:18:06.506Z,3135.00
2022-08-26T12:19:06.438Z,3151.00
2022-08-26T12:20:06.435Z,3168.00
2022-08-26T12:21:06.421Z,3163.00
2022-08-26T12:22:06.411Z,3168.00
2022-08-26T12:23:06.405Z,3138.00
2022-08-26T12:24:06.391Z,3098.00
2022-08-26T12:25:06.391Z,3018.00
2022-08-26T12:26:12.382Z,2936.00
2022-08-26T12:27:06.360Z,2817.00
2022-08-26T12:28:06.463Z,2726.00
2022-08-26T12:29:12.739Z,2678.00
2022-08-26T12:30:08.415Z,2667.00
2022-08-26T12:31:06.331Z,2664.00
2022-08-26T12:32:06.314Z,2653.00
2022-08-26T12:33:19.337Z,2635.00
2022-08-26T12:34:06.291Z,2626.00